Latest Coastal Weather Observations for Croker Island Airport

IDD60701

Issued at 7:51 am CST Friday 23 February 2018 (issued every 10 minutes, with the page automatically refreshed every 10 minutes)

About coastal observations | Map of coastal stations | Coastal observations for NT | Marine services | Other Formats
Station Details ID: 014308 Name: CROKER ISLAND AIRPORT Lat: -11.16 Lon: 132.48 Height: 9.2 m
Data from the previous 72 hours. | See also: Recent months at Croker Island Airport
Date/Time
CST
Temp
°C
Wind Pressure Rain since
9am
mm
Weather Cloud Vis
km
Sea
Height
m
Swell
Dir  Spd
kts
Gust
kts
hPa Trend Height
m
Period
s
Dir
23/07:30am 28.6 W 8 12 1007.3 - 0.0 - - - - - - -
23/07:00am 28.5 WNW 10 15 1006.9 - 0.0 - - - - - - -
23/06:30am 28.3 W 9 12 1006.7 - 0.0 - - - - - - -
23/06:00am 28.2 W 9 12 1006.4 - 0.0 - - - - - - -
23/05:30am 28.1 W 8 12 1006.1 - 0.0 - - - - - - -
23/05:00am 28.1 W 7 10 1005.9 - 0.0 - - - - - - -
23/04:30am 28.1 W 7 9 1005.8 - 0.0 - - - - - - -
23/04:00am 28.1 W 7 9 1005.6 - 0.0 - - - - - - -
23/03:30am 28.2 W 7 10 1005.8 - 0.0 - - - - - - -
23/03:00am 28.2 W 9 13 1005.9 - 0.0 - - - - - - -
23/02:30am 28.2 W 6 9 1006.2 - 0.0 - - - - - - -
23/02:00am 28.3 W 6 9 1006.5 - 0.0 - - - - - - -
23/01:30am 28.3 W 7 10 1006.7 - 0.0 - - - - - - -
23/01:00am 28.5 W 9 13 1006.7 - 0.0 - - - - - - -
23/12:30am 28.5 W 10 14 1006.9 - 0.0 - - - - - - -
23/12:00am 28.6 W 11 14 1007.0 - 0.0 - - - - - - -
 
Date/Time
CST
Temp
°C
Wind Pressure Rain since
9am
mm
Weather Cloud Vis
km
Sea
Height
m
Swell
Dir  Spd
kts
Gust
kts
hPa Trend Height
m
Period
s
Dir
22/11:30pm 28.7 W 11 14 1007.1 - 0.0 - - - - - - -
22/11:00pm 28.7 WNW 8 11 1007.3 - 0.0 - - - - - - -
22/10:30pm 28.5 WNW 8 10 1007.4 - 0.0 - - - - - - -
22/10:00pm 28.4 W 6 8 1007.3 - 0.0 - - - - - - -
22/09:30pm 28.5 W 6 8 1006.9 - 0.0 - - - - - - -
22/09:00pm 28.5 W 8 12 1006.6 - 0.0 - - - - - - -
22/08:30pm 28.5 W 10 14 1006.3 - 0.0 - - - - - - -
22/08:00pm 28.6 W 9 13 1005.8 - 0.0 - - - - - - -
22/07:30pm 28.6 W 9 12 1005.4 - 0.0 - - - - - - -
22/07:00pm 28.8 W 10 14 1005.0 - 0.0 - - - - - - -
22/06:30pm 29.2 W 10 14 1004.6 - 0.0 - - - - - - -
22/06:00pm 28.9 W 10 13 1004.1 - 0.0 - - - - - - -
22/05:30pm 28.8 WNW 12 16 1004.5 - 0.0 - - - - - - -
22/05:00pm 29.3 WNW 13 18 1004.2 - 0.0 - - - - - - -
22/04:30pm 30.8 WNW 12 17 1004.3 - 0.0 - - - - - - -
22/04:00pm 30.5 WNW 12 16 1004.7 - 0.0 - - - - - - -
22/03:30pm 30.5 WNW 11 15 1005.0 - 0.0 - - - - - - -
22/03:00pm 31.1 WNW 11 15 1005.2 - 0.0 - - - - - - -
22/02:30pm 29.8 WNW 10 14 1005.3 - 0.0 - - - - - - -
22/02:00pm 30.8 WNW 12 16 1005.7 - 0.0 - - - - - - -
22/01:30pm 30.8 WNW 12 17 1006.2 - 0.0 - - - - - - -
22/01:00pm 30.4 WNW 11 17 1006.5 - 0.0 - - - - - - -
22/12:30pm 30.7 WNW 12 17 1006.9 - 0.0 - - - - - - -
22/12:00pm 30.6 WNW 10 15 1007.4 - 0.0 - - - - - - -
22/11:30am 30.1 W 9 12 1007.8 - 0.0 - - - - - - -
22/11:00am 29.9 WNW 10 14 1008.0 - 0.0 - - - - - - -
22/10:30am 30.0 W 7 10 1008.1 - 0.0 - - - - - - -
22/10:00am 28.4 WNW 9 13 1008.3 - 0.0 - - - - - - -
22/09:30am 30.0 W 5 8 1008.0 - 0.0 - - - - - - -
22/09:00am 29.3 WSW 5 7 1007.8 - 0.0 - - - - - - -
22/08:30am 28.9 WSW 6 8 1007.6 - 0.0 - - - - - - -
22/08:00am 28.5 W 5 7 1007.4 - 0.0 - - - - - - -
22/07:30am 28.0 W 6 9 1007.0 - 0.0 - - - - - - -
22/07:00am 27.6 W 7 10 1006.4 - 0.0 - - - - - - -
22/06:30am 27.6 WSW 8 11 1006.1 - 0.0 - - - - - - -
22/06:00am 27.9 WSW 8 11 1006.1 - 0.0 - - - - - - -
22/05:30am 27.9 WNW 8 12 1005.7 - 0.0 - - - - - - -
22/05:00am 27.8 WNW 7 10 1005.6 - 0.0 - - - - - - -
22/04:30am 27.7 WNW 7 10 1005.3 - 0.0 - - - - - - -
22/04:00am 27.8 WNW 8 12 1005.2 - 0.0 - - - - - - -
22/03:30am 27.8 WNW 8 12 1005.4 - 0.0 - - - - - - -
22/03:00am 27.6 WNW 6 9 1005.5 - 0.0 - - - - - - -
22/02:30am 27.6 WNW 7 10 1005.7 - 0.0 - - - - - - -
22/02:00am 27.8 NW 6 9 1006.2 - 0.0 - - - - - - -
22/01:30am 27.9 WNW 7 11 1006.4 - 0.0 - - - - - - -
22/01:00am 27.8 WNW 6 7 1006.6 - 0.0 - - - - - - -
22/12:30am 27.8 W 5 7 1007.0 - 0.0 - - - - - - -
22/12:00am 27.8 W 6 8 1007.0 - 0.0 - - - - - - -
 
Date/Time
CST
Temp
°C
Wind Pressure Rain since
9am
mm
Weather Cloud Vis
km
Sea
Height
m
Swell
Dir  Spd
kts
Gust
kts
hPa Trend Height
m
Period
s
Dir
21/11:30pm 27.8 W 6 8 1007.1 - 0.0 - - - - - - -
21/11:00pm 27.8 WSW 5 7 1007.0 - 0.0 - - - - - - -
21/10:30pm 28.0 WSW 6 8 1007.0 - 0.0 - - - - - - -
21/10:00pm 28.2 W 7 10 1006.6 - 0.0 - - - - - - -
21/09:30pm 28.2 W 8 10 1006.2 - 0.0 - - - - - - -
21/09:00pm 28.2 WNW 8 11 1005.8 - 0.0 - - - - - - -
21/08:30pm 28.3 W 9 12 1005.4 - 0.0 - - - - - - -
21/08:00pm 28.3 W 7 11 1005.4 - 0.0 - - - - - - -
21/07:30pm 28.3 W 6 9 1005.4 - 0.0 - - - - - - -
21/07:00pm 28.3 W 8 11 1005.5 - 0.0 - - - - - - -
21/06:30pm 28.7 WNW 7 11 1005.6 - 0.0 - - - - - - -
21/06:00pm 29.1 WNW 8 11 1005.0 - 0.0 - - - - - - -
21/05:30pm 29.2 W 6 8 1004.9 - 0.0 - - - - - - -
21/05:00pm 28.6 WSW 5 7 1005.1 - 0.0 - - - - - - -
21/04:30pm 28.7 W 5 8 1005.1 - 0.0 - - - - - - -
21/04:00pm 28.2 SW 8 10 1005.2 - 0.0 - - - - - - -
21/03:30pm 28.4 WSW 9 11 1005.3 - 0.0 - - - - - - -
21/03:00pm 28.9 WSW 9 11 1005.8 - 0.0 - - - - - - -
21/02:30pm 28.3 W 8 11 1006.1 - 0.0 - - - - - - -
21/02:00pm 28.6 W 11 16 1006.3 - 0.0 - - - - - - -
21/01:30pm 28.9 W 13 19 1006.7 - 0.0 - - - - - - -
21/01:24pm 29.1 WNW 15 20 1006.7 - 0.0 - - - - - - -
21/01:00pm 29.3 W 7 9 1006.9 - 0.0 - - - - - - -
21/12:30pm 29.7 WNW 8 12 1007.5 - 0.0 - - - - - - -
21/12:00pm 30.9 WNW 7 10 1007.6 - 0.0 - - - - - - -
21/11:30am 30.9 WNW 8 12 1008.0 - 0.0 - - - - - - -
21/11:00am 30.4 WNW 8 10 1008.3 - 0.0 - - - - - - -
21/10:30am 30.2 WNW 6 10 1008.4 - 0.0 - - - - - - -
21/10:00am 30.0 W 4 5 1008.6 - 0.0 - - - - - - -
21/09:30am 29.3 WSW 2 3 1008.6 - 0.0 - - - - - - -
21/09:00am 29.2 SW 3 5 1008.6 - 0.4 Recent precip. - - - - - -
21/08:30am 28.7 WSW 4 7 1008.4 - 0.2 - - - - - - -
21/08:00am 28.4 W 5 7 1008.0 - 0.2 - - - - - - -
21/07:30am 27.9 W 6 8 1007.8 - 0.2 - - - - - - -
21/07:00am 27.3 W 5 7 1007.5 - 0.2 - - - - - - -
21/06:30am 27.2 W 5 8 1007.1 - 0.2 - - - - - - -
21/06:00am 27.2 W 7 11 1006.6 - 0.2 - - - - - - -
21/05:30am 27.1 W 8 11 1006.2 - 0.2 - - - - - - -
21/05:00am 27.2 WSW 7 11 1006.1 - 0.2 - - - - - - -
21/04:30am 27.3 W 7 10 1005.8 - 0.2 - - - - - - -
21/04:00am 27.3 WSW 8 11 1005.9 - 0.2 - - - - - - -
21/03:30am 27.3 W 7 10 1005.9 - 0.2 - - - - - - -
21/03:00am 27.3 W 8 11 1005.9 - 0.2 - - - - - - -
21/02:30am 27.4 W 7 10 1006.3 - 0.2 - - - - - - -
21/02:00am 27.6 W 8 11 1006.5 - 0.2 - - - - - - -
21/01:30am 27.6 W 6 9 1006.7 - 0.2 - - - - - - -
21/01:00am 27.7 W 7 10 1006.8 - 0.2 - - - - - - -
21/12:30am 27.7 W 6 9 1007.1 - 0.2 - - - - - - -
21/12:00am 27.9 W 6 8 1007.3 - 0.2 - - - - - - -
 
Date/Time
CST
Temp
°C
Wind Pressure Rain since
9am
mm
Weather Cloud Vis
km
Sea
Height
m
Swell
Dir  Spd
kts
Gust
kts
hPa Trend Height
m
Period
s
Dir
20/11:30pm 28.0 W 5 7 1007.6 - 0.2 - - - - - - -
20/11:00pm 28.0 W 5 7 1007.5 - 0.2 - - - - - - -
20/10:30pm 28.1 WSW 4 5 1007.1 - 0.2 - - - - - - -
20/10:00pm 28.0 W 3 4 1006.7 - 0.2 - - - - - - -
20/09:30pm 28.1 WSW 4 6 1006.4 - 0.2 - - - - - - -
20/09:00pm 28.3 W 4 5 1006.4 - 0.2 - - - - - - -
20/08:30pm 28.3 W 3 4 1006.3 - 0.2 - - - - - - -
20/08:00pm 28.2 SW 2 3 1006.4 - 0.2 - - - - - - -
20/07:30pm 28.5 SW 4 5 1006.4 - 0.2 - - - - - - -
20/07:00pm 28.5 SW 4 6 1006.2 - 0.2 - - - - - - -
20/06:30pm 29.3 WSW 8 11 1006.3 - 0.2 - - - - - - -
20/06:00pm 29.2 SW 5 11 1006.4 - 0.2 - - - - - - -
20/05:30pm 28.6 W 4 7 1006.5 - 0.2 - - - - - - -
20/05:00pm 28.5 SE 3 6 1006.5 - 0.2 - - - - - - -
20/04:30pm 29.3 WNW 10 13 1006.4 - 0.2 - - - - - - -
20/04:00pm 28.9 WNW 9 14 1006.5 - 0.2 - - - - - - -
20/03:30pm 29.2 W 8 14 1007.0 - 0.2 - - - - - - -
20/03:00pm 29.6 WNW 8 12 1006.9 - 0.2 - - - - - - -
20/02:30pm 30.9 WNW 9 14 1007.2 - 0.2 - - - - - - -
20/02:00pm 31.4 WNW 7 11 1007.4 - 0.2 - - - - - - -
20/01:30pm 30.4 WNW 7 11 1007.7 - 0.2 - - - - - - -
20/01:00pm 30.4 WNW 6 9 1008.2 - 0.2 - - - - - - -
20/12:30pm 30.1 WNW 6 9 1008.6 - 0.2 - - - - - - -
20/12:00pm 29.8 WNW 5 7 1008.8 - 0.2 - - - - - - -
20/11:30am 29.8 W 4 5 1009.1 - 0.2 - - - - - - -
20/11:00am 29.3 W 6 8 1009.4 - 0.2 - - - - - - -
20/10:30am 29.2 WSW 4 5 1009.9 - 0.2 - - - - - - -
20/10:00am 29.5 NW 2 4 1010.1 - 0.2 - - - - - - -
20/09:30am 28.6 NNE 1 3 1010.3 - 0.0 - - - - - - -
20/09:00am 28.1 NNE 4 6 1010.2 - 0.6 - - - - - - -
20/08:30am 27.2 W 2 4 1009.9 - 0.6 - - - - - - -
20/08:00am 26.7 WSW 4 6 1009.2 - 0.6 - - - - - - -

Other Formats:

Comma delimited format used in spreadsheet applications
http://www.bom.gov.au/fwo/IDD60701/IDD60701.94108.axf

JavaScript Object Notation format (JSON) in row-major order
http://www.bom.gov.au/fwo/IDD60701/IDD60701.94108.json